Marine Rouge — JG5115 — position and weather

sailwx.info

Track history (hours):
 
Tides and Currents Weather Stations Pressure Air Temp Water Temp Dewpoint Dewpoint Depression Visibility Wind Speed Wind Dir Waves Ship Positions

Marine Rouge

Last reported at 2017-Jun-27 11:55 UTC. Time now 2017-Jun-27 20:47 UTC.
Position N 35°27' E 139°39'.

Length 52 m; draft 2.8 m.

Type: Passenger vessel. MMSI: 431000518.

Date/timePositionNaut miles runAvg speedWind from/ knotsBaromVisibWave heightAir tempDewpointWater temp
2017-Jun-27 11:55N 35°27' E 139°39'1 2.1
2017-Jun-27 11:30N 35°27' E 139°38'0 0.1
2017-Jun-27 11:00N 35°27' E 139°38'1 1.8
2017-Jun-27 10:30N 35°27' E 139°39'1 1.2
2017-Jun-27 10:00N 35°27' E 139°39'0 0.3
2017-Jun-27 09:30N 35°27' E 139°39'0 0.0
2017-Jun-27 09:00N 35°27' E 139°39'0 0.0
2017-Jun-27 08:30N 35°27' E 139°39'3 5.6
2017-Jun-27 08:00N 35°28' E 139°42'3 5.6
2017-Jun-27 07:30N 35°27' E 139°39'0 0.9
2017-Jun-27 07:00N 35°27' E 139°39'0 0.0
2017-Jun-27 06:30N 35°27' E 139°39'3 5.5
2017-Jun-27 06:00N 35°28' E 139°42'3 5.5
2017-Jun-27 05:30N 35°27' E 139°39'0 0.0
2017-Jun-27 05:00N 35°27' E 139°39'3 5.6
2017-Jun-27 04:30N 35°28' E 139°42'3 5.3
2017-Jun-27 04:00N 35°28' E 139°39'1 1.0
2017-Jun-27 03:30N 35°27' E 139°39'1 1.0
2017-Jun-27 03:00N 35°27' E 139°39'0 0.1
2017-Jun-27 02:30N 35°27' E 139°39'0 0.1
2017-Jun-27 02:00N 35°27' E 139°39'0 0.0
2017-Jun-27 01:30N 35°27' E 139°39'0 0.0
2017-Jun-27 01:00N 35°27' E 139°39'0 0.0
2017-Jun-26 12:30N 35°27' E 139°39'0 0.0
2017-Jun-26 12:00N 35°27' E 139°39'1 2.0
2017-Jun-26 11:30N 35°28' E 139°39'3 6.1
2017-Jun-26 11:01N 35°27' E 139°43'3 6.2
2017-Jun-26 10:31N 35°27' E 139°39'1 1.2
2017-Jun-26 10:00N 35°27' E 139°39'0 0.0
2017-Jun-26 09:30N 35°27' E 139°39'0 0.0
2017-Jun-26 09:00N 35°27' E 139°39'0 0.0
2017-Jun-26 08:30N 35°27' E 139°39'3 5.7
2017-Jun-26 08:00N 35°28' E 139°42'3 6.0
2017-Jun-26 07:30N 35°27' E 139°39'1 1.0
2017-Jun-26 07:00N 35°27' E 139°39'0 0.0
2017-Jun-26 06:30N 35°27' E 139°39'1 1.8
2017-Jun-26 06:00N 35°28' E 139°40'1 1.8
2017-Jun-26 05:30N 35°27' E 139°39'0 0.0
2017-Jun-26 05:00N 35°27' E 139°39'0 0.0
2017-Jun-26 04:30N 35°27' E 139°39'3 5.6
2017-Jun-26 04:00N 35°28' E 139°42'3 6.0
2017-Jun-26 03:30N 35°27' E 139°39'1 1.0
2017-Jun-26 03:00N 35°27' E 139°39'0 0.0
2017-Jun-26 02:30N 35°27' E 139°39'0 0.0
2017-Jun-26 02:00N 35°27' E 139°39'0 0.0
2017-Jun-26 01:30N 35°27' E 139°39'0 0.0
2017-Jun-26 01:00N 35°27' E 139°39'0 0.0
2017-Jun-25 12:39N 35°27' E 139°39'1 3.7
2017-Jun-25 12:30N 35°27' E 139°39'1 1.0
2017-Jun-25 12:00N 35°27' E 139°39'1 2.6
2017-Jun-25 11:30N 35°28' E 139°40'2 4.6
2017-Jun-25 11:00N 35°27' E 139°42'3 6.2
2017-Jun-25 10:30N 35°27' E 139°39'1 1.0
2017-Jun-25 10:00N 35°27' E 139°39'0 0.0
2017-Jun-25 09:30N 35°27' E 139°39'0 0.0
2017-Jun-25 09:00N 35°27' E 139°39'0 0.0
2017-Jun-25 08:30N 35°27' E 139°39'2 4.8
2017-Jun-25 08:00N 35°28' E 139°41'2 4.6
2017-Jun-25 07:31N 35°27' E 139°39'1 1.1
2017-Jun-25 07:00N 35°27' E 139°39'0 0.0
2017-Jun-25 06:30N 35°27' E 139°39'3 5.7
2017-Jun-25 06:01N 35°27' E 139°42'3 5.6
2017-Jun-25 05:30N 35°27' E 139°39'1 1.1
2017-Jun-25 05:00N 35°27' E 139°39'1 1.1
2017-Jun-25 04:30N 35°27' E 139°39'3 6.3
2017-Jun-25 04:00N 35°27' E 139°43'3 6.9
2017-Jun-25 03:30N 35°27' E 139°39'1 1.0
2017-Jun-25 03:00N 35°27' E 139°39'0 0.0
2017-Jun-25 02:30N 35°27' E 139°39'0 0.0
2017-Jun-25 02:00N 35°27' E 139°39'0 0.0
2017-Jun-25 01:30N 35°27' E 139°39'0 0.0
2017-Jun-25 01:00N 35°27' E 139°39'0 0.0
2017-Jun-25 00:30N 35°27' E 139°39'0 0.0
2017-Jun-24 12:37N 35°27' E 139°39'0 4.5
2017-Jun-24 12:30N 35°27' E 139°39'0 1.0
2017-Jun-24 12:00N 35°27' E 139°39'2 4.1
2017-Jun-24 11:30N 35°28' E 139°41'2 4.0
2017-Jun-24 11:00N 35°27' E 139°42'3 6.1
2017-Jun-24 10:31N 35°27' E 139°39'1 1.0
2017-Jun-24 10:01N 35°27' E 139°39'0 0.0
2017-Jun-24 09:31N 35°27' E 139°39'0 0.0
2017-Jun-24 09:00N 35°27' E 139°39'0 0.0
2017-Jun-24 08:31N 35°27' E 139°39'3 5.6
2017-Jun-24 08:00N 35°28' E 139°42'3 5.9
2017-Jun-24 07:31N 35°27' E 139°39'1 1.0
2017-Jun-24 07:01N 35°27' E 139°39'0 0.0
2017-Jun-24 06:30N 35°27' E 139°39'3 5.7
2017-Jun-24 06:01N 35°28' E 139°42'3 5.7
2017-Jun-24 05:31N 35°27' E 139°39'0 0.2
2017-Jun-24 05:01N 35°27' E 139°39'0 0.2
2017-Jun-24 04:30N 35°27' E 139°39'3 5.7
2017-Jun-24 04:01N 35°28' E 139°42'3 5.9
2017-Jun-24 03:30N 35°27' E 139°39'1 1.0
2017-Jun-24 03:01N 35°27' E 139°39'0 0.0
2017-Jun-24 02:30N 35°27' E 139°39'0 0.0
2017-Jun-24 02:01N 35°27' E 139°39'0 0.2
2017-Jun-24 01:31N 35°27' E 139°39'0 0.2
2017-Jun-24 01:00N 35°27' E 139°39'0 0.0
2017-Jun-24 00:30N 35°27' E 139°39'0 0.0
2017-Jun-23 11:59N 35°27' E 139°39'1 1.8
2017-Jun-23 11:31N 35°28' E 139°39'2 4.7
2017-Jun-23 11:00N 35°27' E 139°42'3 6.0
2017-Jun-23 10:31N 35°27' E 139°39'1 1.0
2017-Jun-23 10:01N 35°27' E 139°39'0 0.0
2017-Jun-23 09:31N 35°27' E 139°39'0 0.0
2017-Jun-23 09:00N 35°27' E 139°39'1 2.6
2017-Jun-23 08:31N 35°28' E 139°40'1 1.3
2017-Jun-23 08:00N 35°27' E 139°40'1 2.6
2017-Jun-23 07:31N 35°27' E 139°39'1 1.4
2017-Jun-23 07:01N 35°27' E 139°39'0 0.0
2017-Jun-23 06:31N 35°27' E 139°39'1 1.9
2017-Jun-23 06:00N 35°28' E 139°40'1 2.0
2017-Jun-23 05:31N 35°27' E 139°39'0 0.0
2017-Jun-23 05:01N 35°27' E 139°39'0 0.1
2017-Jun-23 04:31N 35°27' E 139°39'3 5.6
2017-Jun-23 04:01N 35°28' E 139°42'3 5.8
2017-Jun-23 03:31N 35°27' E 139°39'1 1.2
2017-Jun-23 03:01N 35°27' E 139°39'0 0.0
2017-Jun-23 02:30N 35°27' E 139°39'0 0.0
2017-Jun-23 02:01N 35°27' E 139°39'0 0.0
2017-Jun-23 01:30N 35°27' E 139°39'0 0.0
2017-Jun-23 01:01N 35°27' E 139°39'0 0.0
2017-Jun-22 12:35N 35°27' E 139°39'0 1.4
2017-Jun-22 12:31N 35°27' E 139°39'0 0.2
2017-Jun-22 12:00N 35°27' E 139°39'2 3.7
2017-Jun-22 11:31N 35°28' E 139°41'1 1.8
2017-Jun-22 11:00N 35°27' E 139°40'1 2.7
2017-Jun-22 10:30N 35°27' E 139°39'1 1.0
2017-Jun-22 10:01N 35°27' E 139°39'0 0.0
2017-Jun-22 09:30N 35°27' E 139°39'0 0.0
2017-Jun-22 09:01N 35°27' E 139°39'0 0.0
2017-Jun-22 08:31N 35°27' E 139°39'3 5.7
2017-Jun-22 08:00N 35°28' E 139°42'3 5.5
2017-Jun-22 07:30N 35°27' E 139°39'1 1.2
2017-Jun-22 07:00N 35°27' E 139°39'0 0.0
2017-Jun-22 06:30N 35°27' E 139°39'3 5.6
2017-Jun-22 06:01N 35°28' E 139°42'3 5.6
2017-Jun-22 05:30N 35°27' E 139°39'0 0.0
2017-Jun-22 05:00N 35°27' E 139°39'0 0.0
2017-Jun-22 04:30N 35°27' E 139°39'3 5.6
2017-Jun-22 04:00N 35°28' E 139°42'3 5.3
2017-Jun-22 03:30N 35°27' E 139°39'1 1.4
2017-Jun-22 03:01N 35°27' E 139°39'0 0.0
2017-Jun-22 02:30N 35°27' E 139°39'0 0.0
2017-Jun-22 02:01N 35°27' E 139°39'0 0.0
2017-Jun-22 01:31N 35°27' E 139°39'0 0.0
2017-Jun-22 01:00N 35°27' E 139°39'0 0.0
2017-Jun-21 11:54N 35°27' E 139°39'1 2.8
2017-Jun-21 11:30N 35°28' E 139°39'0 0.2
2017-Jun-21 11:00N 35°28' E 139°39'0 0.0
2017-Jun-21 10:30N 35°28' E 139°39'1 2.3
2017-Jun-21 10:00N 35°27' E 139°39'0 0.0
2017-Jun-21 09:30N 35°27' E 139°39'0 0.0
2017-Jun-21 09:00N 35°27' E 139°39'0 0.0
2017-Jun-21 08:30N 35°27' E 139°39'0 0.0
2017-Jun-21 08:00N 35°27' E 139°39'0 0.0
2017-Jun-21 07:30N 35°27' E 139°39'0 0.0
2017-Jun-21 07:00N 35°27' E 139°39'0 0.0
2017-Jun-21 06:31N 35°27' E 139°39'0 0.0
2017-Jun-21 06:00N 35°27' E 139°39'0 0.0
2017-Jun-21 05:30N 35°27' E 139°39'0 0.0
2017-Jun-21 05:00N 35°27' E 139°39'0 0.0
2017-Jun-21 04:30N 35°27' E 139°39'1 1.9
2017-Jun-21 04:00N 35°28' E 139°40'1 1.2
2017-Jun-21 03:30N 35°28' E 139°39'1 1.6
2017-Jun-21 03:00N 35°27' E 139°39'0 0.0
2017-Jun-21 02:30N 35°27' E 139°39'0 0.0
2017-Jun-21 02:00N 35°27' E 139°39'0 0.0
2017-Jun-21 01:30N 35°27' E 139°39'0 0.0
2017-Jun-21 01:00N 35°27' E 139°39'0 0.0
2017-Jun-21 00:30N 35°27' E 139°39'0 0.0
2017-Jun-21 00:01N 35°27' E 139°39'0 0.0
2017-Jun-20 11:57N 35°27' E 139°39'2 5.1
2017-Jun-20 11:30N 35°28' E 139°41'1 2.5
2017-Jun-20 11:00N 35°27' E 139°40'1 2.3
2017-Jun-20 10:30N 35°27' E 139°39'1 1.1
2017-Jun-20 10:00N 35°27' E 139°39'0 0.0
2017-Jun-20 09:30N 35°27' E 139°39'0 0.0
2017-Jun-20 09:00N 35°27' E 139°39'0 0.0
2017-Jun-20 08:31N 35°27' E 139°39'3 5.6
2017-Jun-20 08:00N 35°28' E 139°42'3 5.6
2017-Jun-20 07:30N 35°27' E 139°39'1 1.1
2017-Jun-20 07:00N 35°27' E 139°39'0 0.0
2017-Jun-20 06:30N 35°27' E 139°39'3 5.6
2017-Jun-20 06:00N 35°28' E 139°42'3 5.6
2017-Jun-20 05:30N 35°27' E 139°39'0 0.0
2017-Jun-20 05:00N 35°27' E 139°39'0 0.0
2017-Jun-20 04:30N 35°27' E 139°39'3 5.6
2017-Jun-20 04:00N 35°28' E 139°42'3 6.0
2017-Jun-20 03:30N 35°27' E 139°39'1 1.0
2017-Jun-20 03:00N 35°27' E 139°39'0 0.0
2017-Jun-20 02:30N 35°27' E 139°39'0 0.0
2017-Jun-20 02:00N 35°27' E 139°39'0 0.0
2017-Jun-20 01:30N 35°27' E 139°39'0 0.0
2017-Jun-20 01:00N 35°27' E 139°39'0 0.0
2017-Jun-20 00:30N 35°27' E 139°39'0 0.0
2017-Jun-19 12:31N 35°27' E 139°39'0 0.0
2017-Jun-19 12:31N 35°27' E 139°39'0 0.0
2017-Jun-19 12:00N 35°27' E 139°39'1 1.9
2017-Jun-19 11:30N 35°28' E 139°40'2 4.1
2017-Jun-19 11:00N 35°27' E 139°42'3 5.6
2017-Jun-19 10:30N 35°27' E 139°39'1 1.0
2017-Jun-19 10:00N 35°27' E 139°39'0 0.0
2017-Jun-19 09:30N 35°27' E 139°39'0 0.0
2017-Jun-19 09:00N 35°27' E 139°39'0 0.0
2017-Jun-19 08:30N 35°27' E 139°39'1 2.0
2017-Jun-19 08:00N 35°28' E 139°39'3 5.7
2017-Jun-19 07:30N 35°28' E 139°42'3 5.7
2017-Jun-19 07:00N 35°27' E 139°39'0 0.0
2017-Jun-19 06:30N 35°27' E 139°39'3 5.4
2017-Jun-19 06:01N 35°28' E 139°42'3 5.4
2017-Jun-19 05:30N 35°27' E 139°39'0 0.0
2017-Jun-19 05:00N 35°27' E 139°39'0 0.0
2017-Jun-19 04:30N 35°27' E 139°39'3 5.6
2017-Jun-19 04:00N 35°28' E 139°42'3 5.5
2017-Jun-19 03:31N 35°27' E 139°39'1 1.1
2017-Jun-19 03:00N 35°27' E 139°39'0 0.0
2017-Jun-19 02:30N 35°27' E 139°39'0 0.0
2017-Jun-19 02:00N 35°27' E 139°39'0 0.0
2017-Jun-19 01:30N 35°27' E 139°39'0 0.0
2017-Jun-19 01:00N 35°27' E 139°39'0 0.0
2017-Jun-19 00:30N 35°27' E 139°39'0 0.0
2017-Jun-18 11:58N 35°27' E 139°39'1 2.1
2017-Jun-18 11:31N 35°28' E 139°39'3 5.6
2017-Jun-18 11:01N 35°27' E 139°43'3 6.3
2017-Jun-18 10:31N 35°27' E 139°39'1 1.0
2017-Jun-18 10:00N 35°27' E 139°39'0 0.0
2017-Jun-18 09:31N 35°27' E 139°39'0 0.0
2017-Jun-18 09:01N 35°27' E 139°39'0 0.1
2017-Jun-18 08:31N 35°27' E 139°39'3 5.6
2017-Jun-18 08:01N 35°28' E 139°42'3 5.5
2017-Jun-18 07:31N 35°27' E 139°39'1 1.0
2017-Jun-18 07:01N 35°27' E 139°39'0 0.0
2017-Jun-18 06:31N 35°27' E 139°39'3 5.6
2017-Jun-18 06:01N 35°28' E 139°42'3 5.6
2017-Jun-18 05:31N 35°27' E 139°39'0 1.0
2017-Jun-18 05:01N 35°27' E 139°39'0 1.0
2017-Jun-18 04:31N 35°27' E 139°39'3 6.1
2017-Jun-18 04:01N 35°27' E 139°43'3 6.7
2017-Jun-18 03:31N 35°27' E 139°39'1 1.0
2017-Jun-18 03:01N 35°27' E 139°39'0 0.0
2017-Jun-18 02:31N 35°27' E 139°39'0 0.0
2017-Jun-18 02:01N 35°27' E 139°39'0 0.0
2017-Jun-18 01:31N 35°27' E 139°39'0 0.0
2017-Jun-18 01:01N 35°27' E 139°39'0 0.0
2017-Jun-18 00:31N 35°27' E 139°39'0 0.0
2017-Jun-17 12:43N 35°27' E 139°39'1 2.5
2017-Jun-17 12:30N 35°27' E 139°39'1 1.0
2017-Jun-17 12:00N 35°27' E 139°39'  
Track history (hours):
 
Tides and Currents Weather Stations Pressure Air Temp Water Temp Dewpoint Dewpoint Depression Visibility Wind Speed Wind Dir Waves Ship Positions

Marine Rouge

Last reported at 2017-Jun-27 11:55 UTC. Time now 2017-Jun-27 20:47 UTC.
Position N 35°27' E 139°39'.

Length 52 m; draft 2.8 m.

Type: Passenger vessel. MMSI: 431000518.

Date/timePositionNaut miles runAvg speedWind from/ knotsBaromVisibWave heightAir tempDewpointWater temp
2017-Jun-27 11:55N 35°27' E 139°39'1 2.1
2017-Jun-27 11:30N 35°27' E 139°38'0 0.1
2017-Jun-27 11:00N 35°27' E 139°38'1 1.8
2017-Jun-27 10:30N 35°27' E 139°39'1 1.2
2017-Jun-27 10:00N 35°27' E 139°39'0 0.3
2017-Jun-27 09:30N 35°27' E 139°39'0 0.0
2017-Jun-27 09:00N 35°27' E 139°39'0 0.0
2017-Jun-27 08:30N 35°27' E 139°39'3 5.6
2017-Jun-27 08:00N 35°28' E 139°42'3 5.6
2017-Jun-27 07:30N 35°27' E 139°39'0 0.9
2017-Jun-27 07:00N 35°27' E 139°39'0 0.0
2017-Jun-27 06:30N 35°27' E 139°39'3 5.5
2017-Jun-27 06:00N 35°28' E 139°42'3 5.5
2017-Jun-27 05:30N 35°27' E 139°39'0 0.0
2017-Jun-27 05:00N 35°27' E 139°39'3 5.6
2017-Jun-27 04:30N 35°28' E 139°42'3 5.3
2017-Jun-27 04:00N 35°28' E 139°39'1 1.0
2017-Jun-27 03:30N 35°27' E 139°39'1 1.0
2017-Jun-27 03:00N 35°27' E 139°39'0 0.1
2017-Jun-27 02:30N 35°27' E 139°39'0 0.1
2017-Jun-27 02:00N 35°27' E 139°39'0 0.0
2017-Jun-27 01:30N 35°27' E 139°39'0 0.0
2017-Jun-27 01:00N 35°27' E 139°39'0 0.0
2017-Jun-26 12:30N 35°27' E 139°39'0 0.0
2017-Jun-26 12:00N 35°27' E 139°39'1 2.0
2017-Jun-26 11:30N 35°28' E 139°39'3 6.1
2017-Jun-26 11:01N 35°27' E 139°43'3 6.2
2017-Jun-26 10:31N 35°27' E 139°39'1 1.2
2017-Jun-26 10:00N 35°27' E 139°39'0 0.0
2017-Jun-26 09:30N 35°27' E 139°39'0 0.0
2017-Jun-26 09:00N 35°27' E 139°39'0 0.0
2017-Jun-26 08:30N 35°27' E 139°39'3 5.7
2017-Jun-26 08:00N 35°28' E 139°42'3 6.0
2017-Jun-26 07:30N 35°27' E 139°39'1 1.0
2017-Jun-26 07:00N 35°27' E 139°39'0 0.0
2017-Jun-26 06:30N 35°27' E 139°39'1 1.8
2017-Jun-26 06:00N 35°28' E 139°40'1 1.8
2017-Jun-26 05:30N 35°27' E 139°39'0 0.0
2017-Jun-26 05:00N 35°27' E 139°39'0 0.0
2017-Jun-26 04:30N 35°27' E 139°39'3 5.6
2017-Jun-26 04:00N 35°28' E 139°42'3 6.0
2017-Jun-26 03:30N 35°27' E 139°39'1 1.0
2017-Jun-26 03:00N 35°27' E 139°39'0 0.0
2017-Jun-26 02:30N 35°27' E 139°39'0 0.0
2017-Jun-26 02:00N 35°27' E 139°39'0 0.0
2017-Jun-26 01:30N 35°27' E 139°39'0 0.0
2017-Jun-26 01:00N 35°27' E 139°39'0 0.0
2017-Jun-25 12:39N 35°27' E 139°39'1 3.7
2017-Jun-25 12:30N 35°27' E 139°39'1 1.0
2017-Jun-25 12:00N 35°27' E 139°39'1 2.6
2017-Jun-25 11:30N 35°28' E 139°40'2 4.6
2017-Jun-25 11:00N 35°27' E 139°42'3 6.2
2017-Jun-25 10:30N 35°27' E 139°39'1 1.0
2017-Jun-25 10:00N 35°27' E 139°39'0 0.0
2017-Jun-25 09:30N 35°27' E 139°39'0 0.0
2017-Jun-25 09:00N 35°27' E 139°39'0 0.0
2017-Jun-25 08:30N 35°27' E 139°39'2 4.8
2017-Jun-25 08:00N 35°28' E 139°41'2 4.6
2017-Jun-25 07:31N 35°27' E 139°39'1 1.1
2017-Jun-25 07:00N 35°27' E 139°39'0 0.0
2017-Jun-25 06:30N 35°27' E 139°39'3 5.7
2017-Jun-25 06:01N 35°27' E 139°42'3 5.6
2017-Jun-25 05:30N 35°27' E 139°39'1 1.1
2017-Jun-25 05:00N 35°27' E 139°39'1 1.1
2017-Jun-25 04:30N 35°27' E 139°39'3 6.3
2017-Jun-25 04:00N 35°27' E 139°43'3 6.9
2017-Jun-25 03:30N 35°27' E 139°39'1 1.0
2017-Jun-25 03:00N 35°27' E 139°39'0 0.0
2017-Jun-25 02:30N 35°27' E 139°39'0 0.0
2017-Jun-25 02:00N 35°27' E 139°39'0 0.0
2017-Jun-25 01:30N 35°27' E 139°39'0 0.0
2017-Jun-25 01:00N 35°27' E 139°39'0 0.0
2017-Jun-25 00:30N 35°27' E 139°39'0 0.0
2017-Jun-24 12:37N 35°27' E 139°39'0 4.5
2017-Jun-24 12:30N 35°27' E 139°39'0 1.0
2017-Jun-24 12:00N 35°27' E 139°39'2 4.1
2017-Jun-24 11:30N 35°28' E 139°41'2 4.0
2017-Jun-24 11:00N 35°27' E 139°42'3 6.1
2017-Jun-24 10:31N 35°27' E 139°39'1 1.0
2017-Jun-24 10:01N 35°27' E 139°39'0 0.0
2017-Jun-24 09:31N 35°27' E 139°39'0 0.0
2017-Jun-24 09:00N 35°27' E 139°39'0 0.0
2017-Jun-24 08:31N 35°27' E 139°39'3 5.6
2017-Jun-24 08:00N 35°28' E 139°42'3 5.9
2017-Jun-24 07:31N 35°27' E 139°39'1 1.0
2017-Jun-24 07:01N 35°27' E 139°39'0 0.0
2017-Jun-24 06:30N 35°27' E 139°39'3 5.7
2017-Jun-24 06:01N 35°28' E 139°42'3 5.7
2017-Jun-24 05:31N 35°27' E 139°39'0 0.2
2017-Jun-24 05:01N 35°27' E 139°39'0 0.2
2017-Jun-24 04:30N 35°27' E 139°39'3 5.7
2017-Jun-24 04:01N 35°28' E 139°42'3 5.9
2017-Jun-24 03:30N 35°27' E 139°39'1 1.0
2017-Jun-24 03:01N 35°27' E 139°39'0 0.0
2017-Jun-24 02:30N 35°27' E 139°39'0 0.0
2017-Jun-24 02:01N 35°27' E 139°39'0 0.2
2017-Jun-24 01:31N 35°27' E 139°39'0 0.2
2017-Jun-24 01:00N 35°27' E 139°39'0 0.0
2017-Jun-24 00:30N 35°27' E 139°39'0 0.0
2017-Jun-23 11:59N 35°27' E 139°39'1 1.8
2017-Jun-23 11:31N 35°28' E 139°39'2 4.7
2017-Jun-23 11:00N 35°27' E 139°42'3 6.0
2017-Jun-23 10:31N 35°27' E 139°39'1 1.0
2017-Jun-23 10:01N 35°27' E 139°39'0 0.0
2017-Jun-23 09:31N 35°27' E 139°39'0 0.0
2017-Jun-23 09:00N 35°27' E 139°39'1 2.6
2017-Jun-23 08:31N 35°28' E 139°40'1 1.3
2017-Jun-23 08:00N 35°27' E 139°40'1 2.6
2017-Jun-23 07:31N 35°27' E 139°39'1 1.4
2017-Jun-23 07:01N 35°27' E 139°39'0 0.0
2017-Jun-23 06:31N 35°27' E 139°39'1 1.9
2017-Jun-23 06:00N 35°28' E 139°40'1 2.0
2017-Jun-23 05:31N 35°27' E 139°39'0 0.0
2017-Jun-23 05:01N 35°27' E 139°39'0 0.1
2017-Jun-23 04:31N 35°27' E 139°39'3 5.6
2017-Jun-23 04:01N 35°28' E 139°42'3 5.8
2017-Jun-23 03:31N 35°27' E 139°39'1 1.2
2017-Jun-23 03:01N 35°27' E 139°39'0 0.0
2017-Jun-23 02:30N 35°27' E 139°39'0 0.0
2017-Jun-23 02:01N 35°27' E 139°39'0 0.0
2017-Jun-23 01:30N 35°27' E 139°39'0 0.0
2017-Jun-23 01:01N 35°27' E 139°39'0 0.0
2017-Jun-22 12:35N 35°27' E 139°39'0 1.4
2017-Jun-22 12:31N 35°27' E 139°39'0 0.2
2017-Jun-22 12:00N 35°27' E 139°39'2 3.7
2017-Jun-22 11:31N 35°28' E 139°41'1 1.8
2017-Jun-22 11:00N 35°27' E 139°40'1 2.7
2017-Jun-22 10:30N 35°27' E 139°39'1 1.0
2017-Jun-22 10:01N 35°27' E 139°39'0 0.0
2017-Jun-22 09:30N 35°27' E 139°39'0 0.0
2017-Jun-22 09:01N 35°27' E 139°39'0 0.0
2017-Jun-22 08:31N 35°27' E 139°39'3 5.7
2017-Jun-22 08:00N 35°28' E 139°42'3 5.5
2017-Jun-22 07:30N 35°27' E 139°39'1 1.2
2017-Jun-22 07:00N 35°27' E 139°39'0 0.0
2017-Jun-22 06:30N 35°27' E 139°39'3 5.6
2017-Jun-22 06:01N 35°28' E 139°42'3 5.6
2017-Jun-22 05:30N 35°27' E 139°39'0 0.0
2017-Jun-22 05:00N 35°27' E 139°39'0 0.0
2017-Jun-22 04:30N 35°27' E 139°39'3 5.6
2017-Jun-22 04:00N 35°28' E 139°42'3 5.3
2017-Jun-22 03:30N 35°27' E 139°39'1 1.4
2017-Jun-22 03:01N 35°27' E 139°39'0 0.0
2017-Jun-22 02:30N 35°27' E 139°39'0 0.0
2017-Jun-22 02:01N 35°27' E 139°39'0 0.0
2017-Jun-22 01:31N 35°27' E 139°39'0 0.0
2017-Jun-22 01:00N 35°27' E 139°39'0 0.0
2017-Jun-21 11:54N 35°27' E 139°39'1 2.8
2017-Jun-21 11:30N 35°28' E 139°39'0 0.2
2017-Jun-21 11:00N 35°28' E 139°39'0 0.0
2017-Jun-21 10:30N 35°28' E 139°39'1 2.3
2017-Jun-21 10:00N 35°27' E 139°39'0 0.0
2017-Jun-21 09:30N 35°27' E 139°39'0 0.0
2017-Jun-21 09:00N 35°27' E 139°39'0 0.0
2017-Jun-21 08:30N 35°27' E 139°39'0 0.0
2017-Jun-21 08:00N 35°27' E 139°39'0 0.0
2017-Jun-21 07:30N 35°27' E 139°39'0 0.0
2017-Jun-21 07:00N 35°27' E 139°39'0 0.0
2017-Jun-21 06:31N 35°27' E 139°39'0 0.0
2017-Jun-21 06:00N 35°27' E 139°39'0 0.0
2017-Jun-21 05:30N 35°27' E 139°39'0 0.0
2017-Jun-21 05:00N 35°27' E 139°39'0 0.0
2017-Jun-21 04:30N 35°27' E 139°39'1 1.9
2017-Jun-21 04:00N 35°28' E 139°40'1 1.2
2017-Jun-21 03:30N 35°28' E 139°39'1 1.6
2017-Jun-21 03:00N 35°27' E 139°39'0 0.0
2017-Jun-21 02:30N 35°27' E 139°39'0 0.0
2017-Jun-21 02:00N 35°27' E 139°39'0 0.0
2017-Jun-21 01:30N 35°27' E 139°39'0 0.0
2017-Jun-21 01:00N 35°27' E 139°39'0 0.0
2017-Jun-21 00:30N 35°27' E 139°39'0 0.0
2017-Jun-21 00:01N 35°27' E 139°39'0 0.0
2017-Jun-20 11:57N 35°27' E 139°39'2 5.1
2017-Jun-20 11:30N 35°28' E 139°41'1 2.5
2017-Jun-20 11:00N 35°27' E 139°40'1 2.3
2017-Jun-20 10:30N 35°27' E 139°39'1 1.1
2017-Jun-20 10:00N 35°27' E 139°39'0 0.0
2017-Jun-20 09:30N 35°27' E 139°39'0 0.0
2017-Jun-20 09:00N 35°27' E 139°39'0 0.0
2017-Jun-20 08:31N 35°27' E 139°39'3 5.6
2017-Jun-20 08:00N 35°28' E 139°42'3 5.6
2017-Jun-20 07:30N 35°27' E 139°39'1 1.1
2017-Jun-20 07:00N 35°27' E 139°39'0 0.0
2017-Jun-20 06:30N 35°27' E 139°39'3 5.6
2017-Jun-20 06:00N 35°28' E 139°42'3 5.6
2017-Jun-20 05:30N 35°27' E 139°39'0 0.0
2017-Jun-20 05:00N 35°27' E 139°39'0 0.0
2017-Jun-20 04:30N 35°27' E 139°39'3 5.6
2017-Jun-20 04:00N 35°28' E 139°42'3 6.0
2017-Jun-20 03:30N 35°27' E 139°39'1 1.0
2017-Jun-20 03:00N 35°27' E 139°39'0 0.0
2017-Jun-20 02:30N 35°27' E 139°39'0 0.0
2017-Jun-20 02:00N 35°27' E 139°39'0 0.0
2017-Jun-20 01:30N 35°27' E 139°39'0 0.0
2017-Jun-20 01:00N 35°27' E 139°39'0 0.0
2017-Jun-20 00:30N 35°27' E 139°39'0 0.0
2017-Jun-19 12:31N 35°27' E 139°39'0 0.0
2017-Jun-19 12:31N 35°27' E 139°39'0 0.0
2017-Jun-19 12:00N 35°27' E 139°39'1 1.9
2017-Jun-19 11:30N 35°28' E 139°40'2 4.1
2017-Jun-19 11:00N 35°27' E 139°42'3 5.6
2017-Jun-19 10:30N 35°27' E 139°39'1 1.0
2017-Jun-19 10:00N 35°27' E 139°39'0 0.0
2017-Jun-19 09:30N 35°27' E 139°39'0 0.0
2017-Jun-19 09:00N 35°27' E 139°39'0 0.0
2017-Jun-19 08:30N 35°27' E 139°39'1 2.0
2017-Jun-19 08:00N 35°28' E 139°39'3 5.7
2017-Jun-19 07:30N 35°28' E 139°42'3 5.7
2017-Jun-19 07:00N 35°27' E 139°39'0 0.0
2017-Jun-19 06:30N 35°27' E 139°39'3 5.4
2017-Jun-19 06:01N 35°28' E 139°42'3 5.4
2017-Jun-19 05:30N 35°27' E 139°39'0 0.0
2017-Jun-19 05:00N 35°27' E 139°39'0 0.0
2017-Jun-19 04:30N 35°27' E 139°39'3 5.6
2017-Jun-19 04:00N 35°28' E 139°42'3 5.5
2017-Jun-19 03:31N 35°27' E 139°39'1 1.1
2017-Jun-19 03:00N 35°27' E 139°39'0 0.0
2017-Jun-19 02:30N 35°27' E 139°39'0 0.0
2017-Jun-19 02:00N 35°27' E 139°39'0 0.0
2017-Jun-19 01:30N 35°27' E 139°39'0 0.0
2017-Jun-19 01:00N 35°27' E 139°39'0 0.0
2017-Jun-19 00:30N 35°27' E 139°39'0 0.0
2017-Jun-18 11:58N 35°27' E 139°39'1 2.1
2017-Jun-18 11:31N 35°28' E 139°39'3 5.6
2017-Jun-18 11:01N 35°27' E 139°43'3 6.3
2017-Jun-18 10:31N 35°27' E 139°39'1 1.0
2017-Jun-18 10:00N 35°27' E 139°39'0 0.0
2017-Jun-18 09:31N 35°27' E 139°39'0 0.0
2017-Jun-18 09:01N 35°27' E 139°39'0 0.1
2017-Jun-18 08:31N 35°27' E 139°39'3 5.6
2017-Jun-18 08:01N 35°28' E 139°42'3 5.5
2017-Jun-18 07:31N 35°27' E 139°39'1 1.0
2017-Jun-18 07:01N 35°27' E 139°39'0 0.0
2017-Jun-18 06:31N 35°27' E 139°39'3 5.6
2017-Jun-18 06:01N 35°28' E 139°42'3 5.6
2017-Jun-18 05:31N 35°27' E 139°39'0 1.0
2017-Jun-18 05:01N 35°27' E 139°39'0 1.0
2017-Jun-18 04:31N 35°27' E 139°39'3 6.1
2017-Jun-18 04:01N 35°27' E 139°43'3 6.7
2017-Jun-18 03:31N 35°27' E 139°39'1 1.0
2017-Jun-18 03:01N 35°27' E 139°39'0 0.0
2017-Jun-18 02:31N 35°27' E 139°39'0 0.0
2017-Jun-18 02:01N 35°27' E 139°39'0 0.0
2017-Jun-18 01:31N 35°27' E 139°39'0 0.0
2017-Jun-18 01:01N 35°27' E 139°39'0 0.0
2017-Jun-18 00:31N 35°27' E 139°39'0 0.0
2017-Jun-17 12:43N 35°27' E 139°39'1 2.5
2017-Jun-17 12:30N 35°27' E 139°39'1 1.0
2017-Jun-17 12:00N 35°27' E 139°39'  

Dump ship's entire track history